createdAt,value
2022-09-22T00:00:15.027Z,1.25
2022-09-22T00:03:06.093Z,1.58
2022-09-22T00:05:35.094Z,1.60
2022-09-22T00:08:04.358Z,1.73
2022-09-22T00:10:33.294Z,1.42
2022-09-22T00:13:02.194Z,1.33
2022-09-22T00:15:31.359Z,1.35
2022-09-22T00:18:00.357Z,1.30
2022-09-22T00:20:30.957Z,1.63
2022-09-22T00:23:00.430Z,1.83
2022-09-22T00:25:29.489Z,1.23
2022-09-22T00:27:58.414Z,2.50
2022-09-22T00:30:27.545Z,1.40
2022-09-22T00:32:56.380Z,1.50
2022-09-22T00:35:25.487Z,1.17
2022-09-22T00:37:56.031Z,1.23
2022-09-22T00:40:25.070Z,1.38
2022-09-22T00:42:53.970Z,1.35
2022-09-22T00:45:23.107Z,1.20
2022-09-22T00:47:52.067Z,1.20
2022-09-22T00:50:23.775Z,1.40
2022-09-22T00:52:59.711Z,1.45
2022-09-22T00:58:04.003Z,1.30
2022-09-22T01:00:33.125Z,1.10
2022-09-22T01:03:05.842Z,1.33
2022-09-22T01:05:37.035Z,1.17
2022-09-22T01:08:08.169Z,1.73
2022-09-22T01:10:37.374Z,1.33
2022-09-22T01:13:19.080Z,1.30
2022-09-22T01:16:02.012Z,1.15
2022-09-22T01:18:43.090Z,1.15
2022-09-22T01:21:33.790Z,1.13
2022-09-22T01:24:45.233Z,1.40
2022-09-22T01:28:00.035Z,1.30
2022-09-22T01:30:37.162Z,1.42
2022-09-22T01:33:29.325Z,1.35
2022-09-22T01:36:11.875Z,1.42
2022-09-22T01:38:49.121Z,1.25
2022-09-22T01:41:25.660Z,1.27
2022-09-22T01:44:01.273Z,1.40
2022-09-22T01:46:36.671Z,1.50
2022-09-22T01:51:40.920Z,1.20
2022-09-22T01:54:16.429Z,1.38
2022-09-22T01:56:50.611Z,1.20
2022-09-22T01:59:23.779Z,1.30
2022-09-22T02:01:58.264Z,1.60
2022-09-22T02:04:32.892Z,1.50
2022-09-22T02:07:06.507Z,0.95
2022-09-22T02:09:37.112Z,1.00
2022-09-22T02:12:06.864Z,1.25
2022-09-22T02:14:36.507Z,1.35
2022-09-22T02:17:07.094Z,1.00
2022-09-22T02:19:39.962Z,1.30
2022-09-22T02:22:11.628Z,1.10
2022-09-22T02:24:42.859Z,1.50
2022-09-22T02:27:20.586Z,1.20
2022-09-22T02:29:55.466Z,1.20
2022-09-22T02:33:50.034Z,1.50
2022-09-22T02:36:35.757Z,1.20
2022-09-22T02:39:10.828Z,1.35
2022-09-22T02:41:57.672Z,1.13
2022-09-22T02:44:33.026Z,1.35
2022-09-22T02:47:09.331Z,1.20
2022-09-22T02:49:39.094Z,1.23
2022-09-22T02:52:14.046Z,1.25
2022-09-22T02:54:43.505Z,1.27
2022-09-22T02:57:12.613Z,1.60
2022-09-22T02:59:41.593Z,1.50
2022-09-22T03:02:10.723Z,1.40
2022-09-22T03:04:39.728Z,1.77
2022-09-22T03:07:08.887Z,1.33
2022-09-22T03:09:39.343Z,1.30
2022-09-22T03:12:08.643Z,1.50
2022-09-22T03:14:37.573Z,1.30
2022-09-22T03:17:06.840Z,1.67
2022-09-22T03:19:36.100Z,1.33
2022-09-22T03:22:05.493Z,1.85
2022-09-22T03:24:34.574Z,1.33
2022-09-22T03:27:04.939Z,1.38
2022-09-22T03:29:33.890Z,1.55
2022-09-22T03:32:03.694Z,1.50
2022-09-22T03:34:32.502Z,1.55
2022-09-22T03:37:01.516Z,1.60
2022-09-22T03:39:30.692Z,1.20
2022-09-22T03:41:59.698Z,1.20
2022-09-22T03:44:30.083Z,1.05
2022-09-22T03:46:59.496Z,0.88
2022-09-22T03:49:28.789Z,0.93
2022-09-22T03:51:57.607Z,0.82
2022-09-22T03:54:26.846Z,0.65
2022-09-22T03:56:55.816Z,0.90
2022-09-22T03:59:24.879Z,0.88
2022-09-22T04:01:58.269Z,0.98
2022-09-22T04:04:27.446Z,1.00
2022-09-22T04:06:56.660Z,0.88
2022-09-22T04:09:25.615Z,1.15
2022-09-22T04:11:54.586Z,0.82
2022-09-22T04:14:23.783Z,0.98
2022-09-22T04:16:54.478Z,1.05
2022-09-22T04:19:23.994Z,1.08
2022-09-22T04:21:57.018Z,1.30
2022-09-22T04:24:26.672Z,1.40
2022-09-22T04:27:19.140Z,1.05
2022-09-22T04:29:44.641Z,1.30
2022-09-22T04:32:15.252Z,1.13
2022-09-22T04:34:44.312Z,1.38
2022-09-22T04:37:13.734Z,1.20
2022-09-22T04:39:42.961Z,1.20
2022-09-22T04:42:11.956Z,1.52
2022-09-22T04:44:41.260Z,1.48
2022-09-22T04:47:10.249Z,1.60
2022-09-22T04:49:40.673Z,1.70
2022-09-22T04:52:09.722Z,1.40
2022-09-22T04:54:38.839Z,1.58
2022-09-22T04:57:07.902Z,1.60
2022-09-22T04:59:37.036Z,1.75
2022-09-22T05:02:06.144Z,1.73
2022-09-22T05:04:35.046Z,2.22
2022-09-22T05:07:05.670Z,2.38
2022-09-22T05:09:34.704Z,2.47
2022-09-22T05:12:03.910Z,2.45
2022-09-22T05:14:34.620Z,2.22
2022-09-22T05:17:04.084Z,2.33
2022-09-22T05:19:33.292Z,1.73
2022-09-22T05:22:02.286Z,2.08
2022-09-22T05:24:32.621Z,1.60
2022-09-22T05:27:01.661Z,1.70
2022-09-22T05:29:30.773Z,1.55
2022-09-22T05:31:59.806Z,1.33
2022-09-22T05:34:28.729Z,1.33
2022-09-22T05:36:57.889Z,1.42
2022-09-22T05:39:26.716Z,1.98
2022-09-22T05:41:57.251Z,1.33
2022-09-22T05:44:26.602Z,1.60
2022-09-22T05:46:55.896Z,2.00
2022-09-22T05:49:25.230Z,1.70
2022-09-22T05:51:57.360Z,1.65
2022-09-22T05:54:26.501Z,1.40
2022-09-22T05:56:57.489Z,1.50
2022-09-22T05:59:26.364Z,1.40
2022-09-22T06:01:59.541Z,1.42
2022-09-22T06:04:28.750Z,1.20
2022-09-22T06:06:58.122Z,1.58
2022-09-22T06:09:27.103Z,2.45
2022-09-22T06:11:57.667Z,1.45
2022-09-22T06:14:26.943Z,1.13
2022-09-22T06:16:56.010Z,1.48
2022-09-22T06:19:25.200Z,1.05
2022-09-22T06:21:54.426Z,0.90
2022-09-22T06:24:24.206Z,1.38
2022-09-22T06:26:53.408Z,1.27
2022-09-22T06:29:23.748Z,1.50
2022-09-22T06:31:53.191Z,1.10
2022-09-22T06:34:23.909Z,1.30
2022-09-22T06:36:54.770Z,1.48
2022-09-22T06:39:42.519Z,1.50
2022-09-22T06:42:29.899Z,1.95
2022-09-22T06:45:00.651Z,1.40
2022-09-22T06:47:31.796Z,2.03
2022-09-22T06:50:05.671Z,1.70
2022-09-22T06:52:37.499Z,1.45
2022-09-22T06:55:10.704Z,1.85
2022-09-22T06:57:40.689Z,1.80
2022-09-22T07:00:13.724Z,1.83
2022-09-22T07:02:42.912Z,1.50
2022-09-22T07:05:12.496Z,1.23
2022-09-22T07:07:41.746Z,1.38
2022-09-22T07:10:11.293Z,1.10
2022-09-22T07:12:41.017Z,1.55
2022-09-22T07:15:12.472Z,1.27
2022-09-22T07:17:41.757Z,1.40
2022-09-22T07:20:10.988Z,1.70
2022-09-22T07:22:40.669Z,1.38
2022-09-22T07:25:10.590Z,1.60
2022-09-22T07:27:39.711Z,1.20
2022-09-22T07:30:11.775Z,1.83
2022-09-22T07:32:41.307Z,1.30
2022-09-22T07:35:10.809Z,0.90
2022-09-22T07:37:41.318Z,0.93
2022-09-22T07:40:10.992Z,1.05
2022-09-22T07:42:39.922Z,1.13
2022-09-22T07:45:13.935Z,1.55
2022-09-22T07:48:03.738Z,1.52
2022-09-22T07:50:32.643Z,1.20
2022-09-22T07:53:01.916Z,0.90
2022-09-22T07:55:30.763Z,1.20
2022-09-22T07:58:01.287Z,0.95
2022-09-22T08:00:33.719Z,1.13
2022-09-22T08:03:04.185Z,0.75
2022-09-22T08:05:33.420Z,1.33
2022-09-22T08:08:03.814Z,1.70
2022-09-22T08:10:35.974Z,1.73
2022-09-22T08:13:05.284Z,1.90
2022-09-22T08:15:36.341Z,2.80
2022-09-22T08:18:06.586Z,1.73
2022-09-22T08:20:35.791Z,1.50
2022-09-22T08:23:05.677Z,1.45
2022-09-22T08:25:34.845Z,1.73
2022-09-22T08:28:04.539Z,1.20
2022-09-22T08:30:35.533Z,0.88
2022-09-22T08:33:04.626Z,1.17
2022-09-22T08:35:34.639Z,1.02
2022-09-22T08:38:03.932Z,1.55
2022-09-22T08:40:32.993Z,1.10
2022-09-22T08:43:04.461Z,2.22
2022-09-22T08:45:39.434Z,1.27
2022-09-22T08:48:35.111Z,0.80
2022-09-22T08:51:29.321Z,1.65
2022-09-22T08:54:03.337Z,1.42
2022-09-22T08:56:38.129Z,1.60
2022-09-22T08:59:13.568Z,1.30
2022-09-22T09:02:01.252Z,2.05
2022-09-22T09:05:00.938Z,2.15
2022-09-22T09:07:43.990Z,1.67
2022-09-22T09:10:34.264Z,1.80
2022-09-22T09:13:19.805Z,1.48
2022-09-22T09:16:04.369Z,2.40
2022-09-22T09:18:38.502Z,2.35
2022-09-22T09:21:14.506Z,1.55
2022-09-22T09:26:36.889Z,1.85
2022-09-22T09:29:09.695Z,2.42
2022-09-22T09:31:43.891Z,2.30
2022-09-22T09:34:18.102Z,1.80
2022-09-22T09:36:52.871Z,3.60
2022-09-22T09:39:28.399Z,1.40
2022-09-22T09:41:58.970Z,1.63
2022-09-22T09:44:31.370Z,1.20
2022-09-22T09:47:08.398Z,1.83
2022-09-22T09:49:38.877Z,1.88
2022-09-22T09:52:12.670Z,1.92
2022-09-22T09:54:43.413Z,1.98
2022-09-22T09:57:14.575Z,1.50
2022-09-22T10:00:03.772Z,1.52
2022-09-22T10:02:51.222Z,1.10
2022-09-22T10:05:26.830Z,1.20
2022-09-22T10:07:59.945Z,1.20
2022-09-22T10:10:41.289Z,1.00
2022-09-22T10:13:30.951Z,1.08
2022-09-22T10:16:20.856Z,1.45
2022-09-22T10:19:02.937Z,1.40
2022-09-22T10:21:33.689Z,1.95
2022-09-22T10:24:22.387Z,1.50
2022-09-22T10:26:57.415Z,1.30
2022-09-22T10:29:27.381Z,1.20
2022-09-22T10:32:14.205Z,1.35
2022-09-22T10:37:29.173Z,1.20
2022-09-22T10:40:02.811Z,1.02
2022-09-22T10:42:37.049Z,0.88
2022-09-22T10:45:10.849Z,1.05
2022-09-22T10:47:52.587Z,1.67
2022-09-22T10:50:50.810Z,1.23
2022-09-22T10:53:51.439Z,1.20
2022-09-22T10:56:30.429Z,1.00
2022-09-22T10:59:27.434Z,0.77
2022-09-22T11:02:20.172Z,0.50
2022-09-22T11:05:43.096Z,1.20
2022-09-22T11:08:32.910Z,1.27
2022-09-22T11:11:30.789Z,0.50
2022-09-22T11:14:14.377Z,0.73
2022-09-22T11:17:06.475Z,0.68
2022-09-22T11:19:57.267Z,0.80
2022-09-22T11:22:48.749Z,0.60
2022-09-22T11:25:32.993Z,0.80
2022-09-22T11:28:21.263Z,1.00
2022-09-22T11:30:54.246Z,0.50
2022-09-22T11:33:58.159Z,0.70
2022-09-22T11:36:40.580Z,1.50
2022-09-22T11:39:35.039Z,1.23
2022-09-22T11:42:14.913Z,1.02
2022-09-22T11:44:55.675Z,1.45
2022-09-22T11:47:53.350Z,1.25
2022-09-22T11:50:53.995Z,0.82
2022-09-22T11:53:50.971Z,0.68
2022-09-22T11:56:40.280Z,0.85
2022-09-22T11:59:26.030Z,0.60
2022-09-22T12:01:59.312Z,0.73
2022-09-22T12:04:36.107Z,0.83
2022-09-22T12:07:11.321Z,0.50
2022-09-22T12:09:46.852Z,0.50
2022-09-22T12:12:19.770Z,0.50
2022-09-22T12:14:58.087Z,0.43
2022-09-22T12:17:36.922Z,0.50
2022-09-22T12:20:21.766Z,0.75
2022-09-22T12:23:18.132Z,0.60
2022-09-22T12:25:51.040Z,0.55
2022-09-22T12:28:24.301Z,0.50
2022-09-22T12:31:05.001Z,0.50
2022-09-22T12:33:38.180Z,0.65
2022-09-22T12:36:08.377Z,0.40
2022-09-22T12:38:40.066Z,0.30
2022-09-22T12:41:10.246Z,0.40
2022-09-22T12:43:39.415Z,0.40
2022-09-22T12:46:22.514Z,0.50
2022-09-22T12:48:53.619Z,0.50
2022-09-22T12:51:34.130Z,0.50
2022-09-22T12:54:49.080Z,0.43
2022-09-22T12:57:29.326Z,0.70
2022-09-22T13:00:17.369Z,0.47
2022-09-22T13:02:47.357Z,0.65
2022-09-22T13:05:46.414Z,0.90
2022-09-22T13:08:22.924Z,1.33
2022-09-22T13:11:06.872Z,1.13
2022-09-22T13:13:42.036Z,1.17
2022-09-22T13:19:03.395Z,1.23
2022-09-22T13:21:34.580Z,1.90
2022-09-22T13:24:06.375Z,0.90
2022-09-22T13:26:37.727Z,1.23
2022-09-22T13:29:12.720Z,1.60
2022-09-22T13:31:44.480Z,1.98
2022-09-22T13:34:37.960Z,1.88
2022-09-22T13:37:13.705Z,1.83
2022-09-22T13:39:47.572Z,1.42
2022-09-22T13:42:23.602Z,0.85
2022-09-22T13:44:59.908Z,0.63
2022-09-22T13:47:30.067Z,0.65
2022-09-22T13:50:07.280Z,0.50
2022-09-22T13:52:44.543Z,1.05
2022-09-22T13:55:20.975Z,1.08
2022-09-22T13:57:51.959Z,1.55
2022-09-22T14:00:26.440Z,0.70
2022-09-22T14:02:59.179Z,0.93
2022-09-22T14:05:30.954Z,1.65
2022-09-22T14:08:16.141Z,2.13
2022-09-22T14:10:49.755Z,1.90
2022-09-22T14:13:58.932Z,0.80
2022-09-22T14:16:32.715Z,0.70
2022-09-22T14:19:06.161Z,0.60
2022-09-22T14:21:42.176Z,0.60
2022-09-22T14:24:18.644Z,1.13
2022-09-22T14:26:50.246Z,0.70
2022-09-22T14:29:27.050Z,0.50
2022-09-22T14:32:00.506Z,0.50
2022-09-22T14:34:32.400Z,0.77
2022-09-22T14:39:47.376Z,0.50
2022-09-22T14:42:22.851Z,0.50
2022-09-22T14:44:53.818Z,0.30
2022-09-22T14:47:28.015Z,0.40
2022-09-22T14:50:14.573Z,0.75
2022-09-22T14:52:56.530Z,2.05
2022-09-22T14:55:34.401Z,0.90
2022-09-22T14:58:07.386Z,0.60
2022-09-22T15:00:55.485Z,0.57
2022-09-22T15:03:30.089Z,0.60
2022-09-22T15:06:09.475Z,0.70
2022-09-22T15:08:38.320Z,0.77
2022-09-22T15:11:11.595Z,1.02
2022-09-22T15:13:42.198Z,1.20
2022-09-22T15:16:40.352Z,1.20
2022-09-22T15:19:13.199Z,7.45
2022-09-22T15:21:46.489Z,5.45
2022-09-22T15:24:21.179Z,3.05
2022-09-22T15:26:52.220Z,1.90
2022-09-22T15:29:21.146Z,1.77
2022-09-22T15:31:50.063Z,1.85
2022-09-22T15:34:19.117Z,4.30
2022-09-22T15:36:50.030Z,2.63
2022-09-22T15:39:23.035Z,2.58
2022-09-22T15:41:55.332Z,5.35
2022-09-22T15:44:24.483Z,10.80
2022-09-22T15:46:54.831Z,8.80
2022-09-22T15:49:26.474Z,4.38
2022-09-22T15:51:57.059Z,3.60
2022-09-22T15:54:27.556Z,3.40
2022-09-22T15:57:00.815Z,2.47
2022-09-22T15:59:33.967Z,3.17
2022-09-22T16:02:03.319Z,4.60
2022-09-22T16:04:34.329Z,5.03
2022-09-22T16:07:05.888Z,5.80
2022-09-22T16:09:35.285Z,6.80
2022-09-22T16:12:10.805Z,15.52
2022-09-22T16:14:42.413Z,35.28
2022-09-22T16:17:11.608Z,35.45
2022-09-22T16:19:40.733Z,34.50
2022-09-22T16:22:10.019Z,15.13
2022-09-22T16:24:39.027Z,15.15
2022-09-22T16:27:09.808Z,13.10
2022-09-22T16:29:39.035Z,8.70
2022-09-22T16:32:08.310Z,8.05
2022-09-22T16:34:37.617Z,8.52
2022-09-22T16:37:07.021Z,9.63
2022-09-22T16:39:36.947Z,11.27
2022-09-22T16:42:06.508Z,11.32
2022-09-22T16:44:37.249Z,7.97
2022-09-22T16:47:06.468Z,8.75
2022-09-22T16:49:35.795Z,10.60
2022-09-22T16:52:05.390Z,10.07
2022-09-22T16:54:35.333Z,9.57
2022-09-22T16:57:04.681Z,9.23
2022-09-22T16:59:34.637Z,9.07
2022-09-22T17:02:05.545Z,8.68
2022-09-22T17:04:35.735Z,9.23
2022-09-22T17:07:06.289Z,8.98
2022-09-22T17:09:36.337Z,8.07
2022-09-22T17:12:11.153Z,8.48
2022-09-22T17:14:47.742Z,8.63
2022-09-22T17:17:18.652Z,9.52
2022-09-22T17:19:48.584Z,8.35
2022-09-22T17:22:19.230Z,8.52
2022-09-22T17:24:48.622Z,9.57
2022-09-22T17:27:18.982Z,9.02
2022-09-22T17:29:48.043Z,8.43
2022-09-22T17:32:21.035Z,8.75
2022-09-22T17:34:51.532Z,8.23
2022-09-22T17:37:21.928Z,8.15
2022-09-22T17:39:51.593Z,8.50
2022-09-22T17:42:22.620Z,8.15
2022-09-22T17:44:51.712Z,6.57
2022-09-22T17:47:39.578Z,6.88
2022-09-22T17:50:30.583Z,6.70
2022-09-22T17:53:16.440Z,6.72
2022-09-22T17:58:14.793Z,6.82
2022-09-22T18:00:45.292Z,6.63
2022-09-22T18:03:16.240Z,7.55
2022-09-22T18:05:52.524Z,6.47
2022-09-22T18:08:22.245Z,7.78
2022-09-22T18:10:51.488Z,7.00
2022-09-22T18:13:20.652Z,8.05
2022-09-22T18:15:50.985Z,7.53
2022-09-22T18:18:21.603Z,9.43
2022-09-22T18:20:52.172Z,8.68
2022-09-22T18:23:22.444Z,9.68
2022-09-22T18:25:53.069Z,9.40
2022-09-22T18:28:23.407Z,9.55
2022-09-22T18:30:52.474Z,10.25
2022-09-22T18:33:23.580Z,8.52
2022-09-22T18:35:52.731Z,8.65
2022-09-22T18:38:22.104Z,9.30
2022-09-22T18:40:52.376Z,9.45
2022-09-22T18:43:21.527Z,9.27
2022-09-22T18:45:51.003Z,9.27
2022-09-22T18:48:20.037Z,10.25
2022-09-22T18:50:50.501Z,11.68
2022-09-22T18:53:22.640Z,11.15
2022-09-22T18:55:53.069Z,13.23
2022-09-22T18:58:23.213Z,14.60
2022-09-22T19:00:53.169Z,13.43
2022-09-22T19:03:22.229Z,13.63
2022-09-22T19:05:53.626Z,13.43
2022-09-22T19:08:23.539Z,11.90
2022-09-22T19:10:52.623Z,13.07
2022-09-22T19:13:22.052Z,12.05
2022-09-22T19:15:55.046Z,12.98
2022-09-22T19:18:27.248Z,12.18
2022-09-22T19:20:58.393Z,12.77
2022-09-22T19:23:28.524Z,12.75
2022-09-22T19:25:58.122Z,12.27
2022-09-22T19:28:28.741Z,11.73
2022-09-22T19:30:58.116Z,10.30
2022-09-22T19:33:27.524Z,11.18
2022-09-22T19:35:58.077Z,11.00
2022-09-22T19:38:27.433Z,11.82
2022-09-22T19:40:59.442Z,13.23
2022-09-22T19:43:30.186Z,10.73
2022-09-22T19:45:59.650Z,12.63
2022-09-22T19:48:28.965Z,11.40
2022-09-22T19:50:59.777Z,12.75
2022-09-22T19:53:29.338Z,12.10
2022-09-22T19:55:59.651Z,12.73
2022-09-22T19:58:28.785Z,11.05
2022-09-22T20:00:58.466Z,10.93
2022-09-22T20:03:28.018Z,12.55
2022-09-22T20:05:58.509Z,11.80
2022-09-22T20:08:27.820Z,11.65
2022-09-22T20:11:16.653Z,12.07
2022-09-22T20:14:05.310Z,13.70
2022-09-22T20:16:34.411Z,15.75
2022-09-22T20:19:03.780Z,16.27
2022-09-22T20:21:35.086Z,14.05
2022-09-22T20:24:05.198Z,14.55
2022-09-22T20:26:35.062Z,13.02
2022-09-22T20:29:04.168Z,12.82
2022-09-22T20:31:33.885Z,12.52
2022-09-22T20:34:02.992Z,12.75
2022-09-22T20:36:36.645Z,13.95
2022-09-22T20:39:06.597Z,12.05
2022-09-22T20:41:35.752Z,11.88
2022-09-22T20:44:04.872Z,13.00
2022-09-22T20:46:34.271Z,10.52
2022-09-22T20:49:05.151Z,12.73
2022-09-22T20:51:35.971Z,11.90
2022-09-22T20:54:05.677Z,13.60
2022-09-22T20:56:38.419Z,13.70
2022-09-22T20:59:11.569Z,14.93
2022-09-22T21:01:40.645Z,12.18
2022-09-22T21:04:12.925Z,13.82
2022-09-22T21:06:46.717Z,12.25
2022-09-22T21:09:33.520Z,14.27
2022-09-22T21:12:03.258Z,10.55
2022-09-22T21:14:33.888Z,11.20
2022-09-22T21:17:06.490Z,12.70
2022-09-22T21:19:36.488Z,15.07
2022-09-22T21:22:07.316Z,14.50
2022-09-22T21:24:36.386Z,15.00
2022-09-22T21:27:06.043Z,14.55
2022-09-22T21:29:35.387Z,13.88
2022-09-22T21:32:04.523Z,15.25
2022-09-22T21:34:34.331Z,13.48
2022-09-22T21:37:03.677Z,15.32
2022-09-22T21:39:34.049Z,14.15
2022-09-22T21:42:03.192Z,13.57
2022-09-22T21:44:32.527Z,14.10
2022-09-22T21:47:01.413Z,13.48
2022-09-22T21:49:30.423Z,13.57
2022-09-22T21:52:00.740Z,15.13
2022-09-22T21:54:31.182Z,14.35
2022-09-22T21:57:02.015Z,14.18
2022-09-22T21:59:31.618Z,13.77
2022-09-22T22:02:00.688Z,13.60
2022-09-22T22:04:30.157Z,13.10
2022-09-22T22:07:00.095Z,11.57
2022-09-22T22:09:29.172Z,11.43
2022-09-22T22:11:59.786Z,10.98
2022-09-22T22:14:34.972Z,11.75
2022-09-22T22:17:06.831Z,11.05
2022-09-22T22:19:35.990Z,9.80
2022-09-22T22:22:05.472Z,9.85
2022-09-22T22:24:40.092Z,9.80
2022-09-22T22:27:11.850Z,11.00
2022-09-22T22:29:43.268Z,9.93
2022-09-22T22:32:12.669Z,10.52
2022-09-22T22:34:41.790Z,9.82
2022-09-22T22:37:11.078Z,10.23
2022-09-22T22:39:40.770Z,10.60
2022-09-22T22:42:09.872Z,9.70
2022-09-22T22:44:38.884Z,10.70
2022-09-22T22:47:09.696Z,9.98
2022-09-22T22:49:38.940Z,10.10
2022-09-22T22:52:07.826Z,9.15
2022-09-22T22:54:37.182Z,8.43
2022-09-22T22:57:06.584Z,9.50
2022-09-22T22:59:35.512Z,9.23
2022-09-22T23:02:04.993Z,8.35
2022-09-22T23:04:35.500Z,8.35
2022-09-22T23:07:04.402Z,8.57
2022-09-22T23:09:33.752Z,7.80
2022-09-22T23:12:03.147Z,8.13
2022-09-22T23:14:32.243Z,8.27
2022-09-22T23:17:02.511Z,9.27
2022-09-22T23:19:31.627Z,8.32
2022-09-22T23:22:02.980Z,8.85
2022-09-22T23:24:32.474Z,8.70
2022-09-22T23:27:01.527Z,8.43
2022-09-22T23:29:30.897Z,7.47
2022-09-22T23:32:00.083Z,7.70
2022-09-22T23:34:29.377Z,7.13
2022-09-22T23:36:58.500Z,7.53
2022-09-22T23:39:29.349Z,7.22
2022-09-22T23:41:58.535Z,8.38
2022-09-22T23:44:28.008Z,7.40
2022-09-22T23:46:57.295Z,7.82
2022-09-22T23:49:26.634Z,7.25
2022-09-22T23:51:55.589Z,7.32
2022-09-22T23:54:25.126Z,6.88
2022-09-22T23:56:56.212Z,6.85
2022-09-22T23:59:25.535Z,7.70
